createdAt,value
2019-03-10T00:01:32.738Z,1.20
2019-03-10T00:03:07.864Z,1.00
2019-03-10T00:04:42.637Z,1.20
2019-03-10T00:06:17.063Z,1.32
2019-03-10T00:07:51.466Z,1.75
2019-03-10T00:09:25.940Z,1.25
2019-03-10T00:11:00.991Z,1.20
2019-03-10T00:12:35.590Z,1.42
2019-03-10T00:14:10.181Z,1.65
2019-03-10T00:15:45.166Z,1.10
2019-03-10T00:17:19.600Z,1.20
2019-03-10T00:18:54.025Z,1.00
2019-03-10T00:20:28.637Z,1.22
2019-03-10T00:22:03.277Z,1.07
2019-03-10T00:23:37.698Z,1.60
2019-03-10T00:25:12.558Z,1.10
2019-03-10T00:26:46.910Z,1.20
2019-03-10T00:28:21.549Z,1.27
2019-03-10T00:29:56.172Z,1.20
2019-03-10T00:31:30.641Z,1.22
2019-03-10T00:33:05.320Z,1.22
2019-03-10T00:34:39.707Z,1.50
2019-03-10T00:36:14.578Z,1.52
2019-03-10T00:37:48.981Z,1.30
2019-03-10T00:40:17.212Z,1.40
2019-03-10T00:42:32.312Z,1.02
2019-03-10T00:44:42.620Z,1.30
2019-03-10T00:47:13.270Z,1.40
2019-03-10T00:49:22.188Z,1.37
2019-03-10T00:51:26.603Z,1.60
2019-03-10T00:53:01.539Z,1.50
2019-03-10T00:54:35.949Z,1.30
2019-03-10T00:56:10.546Z,1.30
2019-03-10T00:57:44.969Z,1.07
2019-03-10T00:59:19.519Z,1.40
2019-03-10T01:00:54.234Z,1.10
2019-03-10T01:02:28.704Z,1.07
2019-03-10T01:04:03.048Z,1.30
2019-03-10T01:05:37.637Z,1.30
2019-03-10T01:07:12.357Z,1.10
2019-03-10T01:08:46.815Z,1.50
2019-03-10T01:10:21.289Z,1.07
2019-03-10T01:11:55.795Z,1.27
2019-03-10T01:13:30.587Z,1.40
2019-03-10T01:15:05.642Z,1.10
2019-03-10T01:16:40.808Z,1.30
2019-03-10T01:18:15.605Z,1.20
2019-03-10T01:19:50.971Z,1.10
2019-03-10T01:21:26.878Z,1.15
2019-03-10T01:23:01.586Z,1.32
2019-03-10T01:24:36.035Z,1.30
2019-03-10T01:26:10.470Z,1.55
2019-03-10T01:27:44.841Z,1.10
2019-03-10T01:29:19.596Z,1.40
2019-03-10T01:31:07.410Z,1.15
2019-03-10T01:33:17.761Z,1.82
2019-03-10T01:35:21.899Z,1.10
2019-03-10T01:36:56.301Z,1.47
2019-03-10T01:38:30.765Z,1.40
2019-03-10T01:40:06.239Z,1.50
2019-03-10T01:41:41.034Z,1.30
2019-03-10T01:43:15.418Z,1.70
2019-03-10T01:44:49.820Z,1.57
2019-03-10T01:46:24.584Z,1.67
2019-03-10T01:47:59.491Z,1.22
2019-03-10T01:49:34.634Z,1.40
2019-03-10T01:51:09.024Z,1.30
2019-03-10T01:52:43.891Z,1.30
2019-03-10T01:54:18.620Z,1.30
2019-03-10T01:55:53.138Z,1.50
2019-03-10T01:57:27.505Z,2.20
2019-03-10T01:59:01.878Z,1.90
2019-03-10T02:00:36.355Z,2.02
2019-03-10T02:02:10.800Z,1.40
2019-03-10T02:03:45.423Z,1.52
2019-03-10T02:05:20.157Z,1.52
2019-03-10T02:06:54.566Z,1.42
2019-03-10T02:08:29.177Z,1.50
2019-03-10T02:10:04.130Z,1.62
2019-03-10T02:11:39.433Z,1.22
2019-03-10T02:13:14.559Z,2.15
2019-03-10T02:14:49.585Z,2.10
2019-03-10T02:16:24.375Z,1.90
2019-03-10T02:17:59.146Z,1.57
2019-03-10T02:19:34.033Z,1.45
2019-03-10T02:21:09.098Z,1.67
2019-03-10T02:22:44.210Z,1.82
2019-03-10T02:24:23.636Z,2.08
2019-03-10T02:25:56.825Z,2.02
2019-03-10T02:27:32.044Z,1.92
2019-03-10T02:29:06.810Z,1.82
2019-03-10T02:30:42.150Z,2.00
2019-03-10T02:32:16.958Z,1.60
2019-03-10T02:33:52.023Z,1.90
2019-03-10T02:35:27.039Z,1.80
2019-03-10T02:37:01.849Z,1.82
2019-03-10T02:38:36.669Z,2.30
2019-03-10T02:40:11.866Z,2.20
2019-03-10T02:41:46.678Z,2.33
2019-03-10T02:43:21.491Z,2.02
2019-03-10T02:44:56.800Z,1.90
2019-03-10T02:46:32.100Z,2.40
2019-03-10T02:48:07.336Z,1.95
2019-03-10T02:49:42.352Z,2.10
2019-03-10T02:51:17.604Z,2.10
2019-03-10T02:52:52.630Z,2.17
2019-03-10T02:54:27.413Z,2.55
2019-03-10T02:56:02.225Z,2.40
2019-03-10T02:57:37.571Z,2.50
2019-03-10T02:59:12.362Z,2.10
2019-03-10T03:00:47.124Z,2.55
2019-03-10T03:02:22.216Z,3.00
2019-03-10T03:03:57.300Z,2.70
2019-03-10T03:05:32.382Z,2.35
2019-03-10T03:07:07.157Z,2.65
2019-03-10T03:08:41.967Z,2.20
2019-03-10T03:10:17.109Z,2.90
2019-03-10T03:11:52.309Z,2.50
2019-03-10T03:13:27.161Z,2.60
2019-03-10T03:15:02.586Z,2.60
2019-03-10T03:16:37.417Z,2.70
2019-03-10T03:18:12.474Z,2.40
2019-03-10T03:19:47.768Z,2.50
2019-03-10T03:21:23.037Z,2.22
2019-03-10T03:22:58.100Z,2.33
2019-03-10T03:24:33.241Z,2.33
2019-03-10T03:26:08.070Z,2.35
2019-03-10T03:27:43.142Z,2.52
2019-03-10T03:29:18.166Z,2.40
2019-03-10T03:30:52.983Z,2.58
2019-03-10T03:32:34.685Z,2.30
2019-03-10T03:34:09.940Z,2.70
2019-03-10T03:36:06.447Z,2.80
2019-03-10T03:37:41.506Z,2.72
2019-03-10T03:39:24.020Z,2.72
2019-03-10T03:41:02.817Z,3.00
2019-03-10T03:42:37.824Z,3.15
2019-03-10T03:44:12.883Z,2.90
2019-03-10T03:45:47.995Z,2.90
2019-03-10T03:47:22.838Z,2.72
2019-03-10T03:48:57.855Z,3.00
2019-03-10T03:50:32.671Z,2.83
2019-03-10T03:52:08.181Z,2.75
2019-03-10T03:53:43.256Z,2.95
2019-03-10T03:55:18.053Z,2.58
2019-03-10T03:56:52.842Z,3.22
2019-03-10T03:58:27.933Z,3.02
2019-03-10T04:00:03.414Z,2.87
2019-03-10T04:01:57.397Z,2.70
2019-03-10T04:03:32.271Z,2.75
2019-03-10T04:05:07.862Z,3.20
2019-03-10T04:06:42.659Z,3.58
2019-03-10T04:08:17.462Z,2.70
2019-03-10T04:09:52.308Z,3.25
2019-03-10T04:11:27.387Z,3.02
2019-03-10T04:13:02.173Z,2.95
2019-03-10T04:14:36.981Z,3.08
2019-03-10T04:16:11.855Z,3.10
2019-03-10T04:17:46.892Z,3.10
2019-03-10T04:19:21.958Z,2.90
2019-03-10T04:20:56.770Z,3.20
2019-03-10T04:22:31.600Z,2.60
2019-03-10T04:24:06.439Z,3.10
2019-03-10T04:25:41.231Z,2.58
2019-03-10T04:27:16.311Z,3.10
2019-03-10T04:28:51.191Z,2.50
2019-03-10T04:30:26.272Z,3.15
2019-03-10T04:32:01.082Z,2.77
2019-03-10T04:33:35.901Z,2.98
2019-03-10T04:35:10.845Z,2.87
2019-03-10T04:36:45.634Z,2.70
2019-03-10T04:38:20.793Z,2.65
2019-03-10T04:39:55.629Z,2.70
2019-03-10T04:41:30.433Z,3.20
2019-03-10T04:43:05.242Z,2.87
2019-03-10T04:44:40.319Z,2.72
2019-03-10T04:46:15.152Z,2.67
2019-03-10T04:47:50.214Z,3.00
2019-03-10T04:49:25.016Z,2.98
2019-03-10T04:51:00.083Z,3.08
2019-03-10T04:52:34.940Z,2.83
2019-03-10T04:54:09.993Z,2.85
2019-03-10T04:55:52.481Z,2.83
2019-03-10T04:57:27.292Z,2.37
2019-03-10T04:59:02.353Z,3.27
2019-03-10T05:00:38.891Z,3.17
2019-03-10T05:02:13.736Z,3.02
2019-03-10T05:03:48.532Z,2.98
2019-03-10T05:05:23.337Z,2.92
2019-03-10T05:06:58.147Z,2.80
2019-03-10T05:08:33.206Z,2.92
2019-03-10T05:10:08.366Z,2.83
2019-03-10T05:11:43.151Z,2.60
2019-03-10T05:13:18.461Z,2.65
2019-03-10T05:14:53.517Z,2.90
2019-03-10T05:16:28.591Z,2.92
2019-03-10T05:18:03.650Z,2.77
2019-03-10T05:19:38.473Z,2.35
2019-03-10T05:21:13.262Z,2.72
2019-03-10T05:22:48.737Z,2.55
2019-03-10T05:24:23.536Z,2.42
2019-03-10T05:25:59.512Z,2.50
2019-03-10T05:27:34.586Z,2.45
2019-03-10T05:29:09.422Z,3.47
2019-03-10T05:30:44.212Z,2.37
2019-03-10T05:32:19.031Z,3.12
2019-03-10T05:33:54.084Z,2.80
2019-03-10T05:35:28.902Z,2.50
2019-03-10T05:37:03.709Z,2.58
2019-03-10T05:38:38.499Z,2.25
2019-03-10T05:40:13.313Z,2.12
2019-03-10T05:41:48.442Z,2.75
2019-03-10T05:43:23.269Z,2.50
2019-03-10T05:44:58.133Z,2.20
2019-03-10T05:46:33.319Z,2.40
2019-03-10T05:48:08.391Z,2.33
2019-03-10T05:49:43.450Z,2.60
2019-03-10T05:51:18.295Z,2.50
2019-03-10T05:52:53.141Z,2.27
2019-03-10T05:54:28.141Z,2.30
2019-03-10T05:56:02.959Z,2.27
2019-03-10T05:57:37.759Z,2.33
2019-03-10T05:59:12.685Z,2.47
2019-03-10T06:00:47.791Z,2.55
2019-03-10T06:02:23.147Z,2.55
2019-03-10T06:03:58.245Z,2.72
2019-03-10T06:05:33.079Z,2.30
2019-03-10T06:07:08.139Z,2.40
2019-03-10T06:08:42.949Z,2.58
2019-03-10T06:10:17.830Z,2.52
2019-03-10T06:11:52.824Z,2.40
2019-03-10T06:13:27.266Z,2.85
2019-03-10T06:15:01.682Z,2.40
2019-03-10T06:16:36.078Z,2.33
2019-03-10T06:18:13.886Z,2.85
2019-03-10T06:19:46.883Z,2.27
2019-03-10T06:21:21.385Z,2.90
2019-03-10T06:22:55.758Z,2.15
2019-03-10T06:24:30.216Z,2.77
2019-03-10T06:26:04.821Z,2.50
2019-03-10T06:27:39.261Z,2.98
2019-03-10T06:29:13.978Z,2.47
2019-03-10T06:30:48.751Z,2.90
2019-03-10T06:32:23.500Z,2.77
2019-03-10T06:33:57.870Z,2.83
2019-03-10T06:35:32.252Z,2.65
2019-03-10T06:37:07.264Z,3.12
2019-03-10T06:38:41.795Z,2.98
2019-03-10T06:40:16.770Z,3.25
2019-03-10T06:41:51.214Z,3.22
2019-03-10T06:43:25.831Z,3.20
2019-03-10T06:45:00.295Z,4.08
2019-03-10T06:46:34.666Z,2.83
2019-03-10T06:48:09.450Z,3.37
2019-03-10T06:49:44.379Z,2.70
2019-03-10T06:51:19.018Z,3.77
2019-03-10T06:52:53.436Z,2.92
2019-03-10T06:54:27.855Z,2.90
2019-03-10T06:56:02.259Z,3.25
2019-03-10T06:57:36.669Z,3.45
2019-03-10T06:59:11.311Z,3.00
2019-03-10T07:00:46.082Z,3.83
2019-03-10T07:02:20.457Z,3.37
2019-03-10T07:03:55.013Z,3.62
2019-03-10T07:05:29.462Z,3.40
2019-03-10T07:07:03.857Z,3.30
2019-03-10T07:08:38.244Z,3.30
2019-03-10T07:10:13.654Z,3.60
2019-03-10T07:11:48.053Z,3.33
2019-03-10T07:13:22.496Z,4.22
2019-03-10T07:14:57.344Z,3.45
2019-03-10T07:16:32.118Z,3.35
2019-03-10T07:18:06.954Z,3.70
2019-03-10T07:19:41.804Z,3.17
2019-03-10T07:21:16.834Z,4.00
2019-03-10T07:22:51.763Z,3.35
2019-03-10T07:24:26.585Z,3.95
2019-03-10T07:26:08.124Z,3.17
2019-03-10T07:28:05.016Z,3.08
2019-03-10T07:29:47.403Z,3.83
2019-03-10T07:31:27.455Z,3.95
2019-03-10T07:33:18.226Z,3.60
2019-03-10T07:35:27.156Z,3.35
2019-03-10T07:37:20.369Z,3.30
2019-03-10T07:39:13.915Z,3.22
2019-03-10T07:41:11.066Z,3.60
2019-03-10T07:42:51.749Z,3.40
2019-03-10T07:44:30.870Z,3.17
2019-03-10T07:46:14.049Z,3.60
2019-03-10T07:48:10.923Z,3.20
2019-03-10T07:49:59.043Z,3.17
2019-03-10T07:51:41.722Z,3.75
2019-03-10T07:53:32.058Z,3.60
2019-03-10T07:55:24.678Z,3.80
2019-03-10T07:57:07.806Z,3.70
2019-03-10T07:58:51.310Z,3.67
2019-03-10T08:00:52.123Z,4.03
2019-03-10T08:02:55.230Z,3.67
2019-03-10T08:04:52.367Z,3.30
2019-03-10T08:06:38.822Z,7.60
2019-03-10T08:08:17.987Z,15.75
2019-03-10T08:10:02.271Z,9.03
2019-03-10T08:11:53.365Z,3.53
2019-03-10T08:13:45.181Z,3.67
2019-03-10T08:15:33.194Z,3.30
2019-03-10T08:17:18.735Z,3.22
2019-03-10T08:19:06.114Z,3.77
2019-03-10T08:20:50.323Z,3.80
2019-03-10T08:22:33.988Z,3.27
2019-03-10T08:24:20.480Z,3.83
2019-03-10T08:26:00.603Z,3.37
2019-03-10T08:27:43.338Z,3.58
2019-03-10T08:29:35.805Z,3.55
2019-03-10T08:31:35.410Z,4.40
2019-03-10T08:33:24.817Z,3.77
2019-03-10T08:35:17.465Z,3.67
2019-03-10T08:37:06.194Z,4.30
2019-03-10T08:39:17.954Z,3.27
2019-03-10T08:41:14.426Z,3.15
2019-03-10T08:43:05.275Z,3.85
2019-03-10T08:44:50.042Z,3.33
2019-03-10T08:46:34.162Z,3.30
2019-03-10T08:48:21.846Z,3.25
2019-03-10T08:50:24.777Z,3.33
2019-03-10T08:52:22.890Z,3.60
2019-03-10T08:54:22.567Z,2.60
2019-03-10T08:56:05.963Z,2.30
2019-03-10T08:57:49.239Z,2.85
2019-03-10T08:59:51.858Z,2.83
2019-03-10T09:01:44.544Z,2.77
2019-03-10T09:03:37.094Z,2.62
2019-03-10T09:05:22.125Z,3.08
2019-03-10T09:07:24.806Z,3.12
2019-03-10T09:09:27.545Z,2.60
2019-03-10T09:11:12.635Z,3.00
2019-03-10T09:13:12.235Z,2.90
2019-03-10T09:15:06.155Z,2.60
2019-03-10T09:16:58.586Z,2.30
2019-03-10T09:18:51.126Z,2.62
2019-03-10T09:20:42.394Z,2.60
2019-03-10T09:22:44.696Z,2.45
2019-03-10T09:24:36.944Z,2.30
2019-03-10T09:26:18.806Z,2.62
2019-03-10T09:27:59.291Z,2.70
2019-03-10T09:29:47.223Z,2.90
2019-03-10T09:31:28.542Z,3.08
2019-03-10T09:33:10.402Z,2.95
2019-03-10T09:35:06.919Z,2.83
2019-03-10T09:36:55.257Z,3.00
2019-03-10T09:38:51.837Z,3.20
2019-03-10T09:40:34.849Z,3.10
2019-03-10T09:42:22.424Z,2.85
2019-03-10T09:44:12.598Z,3.10
2019-03-10T09:45:54.166Z,2.70
2019-03-10T09:47:35.963Z,2.58
2019-03-10T09:49:24.834Z,2.77
2019-03-10T09:51:11.542Z,2.98
2019-03-10T09:53:05.013Z,2.77
2019-03-10T09:55:17.167Z,2.80
2019-03-10T09:57:16.694Z,2.62
2019-03-10T09:59:03.394Z,3.33
2019-03-10T10:01:02.965Z,3.22
2019-03-10T10:02:52.652Z,3.20
2019-03-10T10:04:46.268Z,3.12
2019-03-10T10:06:28.875Z,3.22
2019-03-10T10:08:40.573Z,3.35
2019-03-10T10:10:21.270Z,3.72
2019-03-10T10:12:32.776Z,3.55
2019-03-10T10:14:29.661Z,3.83
2019-03-10T10:16:21.794Z,2.90
2019-03-10T10:18:06.946Z,3.40
2019-03-10T10:20:00.811Z,3.85
2019-03-10T10:21:58.466Z,3.40
2019-03-10T10:23:51.632Z,3.90
2019-03-10T10:26:00.532Z,3.60
2019-03-10T10:27:55.818Z,3.72
2019-03-10T10:29:48.122Z,3.42
2019-03-10T10:31:34.627Z,3.80
2019-03-10T10:33:34.082Z,4.17
2019-03-10T10:35:30.924Z,3.90
2019-03-10T10:37:36.862Z,4.78
2019-03-10T10:39:21.782Z,4.40
2019-03-10T10:41:14.523Z,4.85
2019-03-10T10:43:07.045Z,4.50
2019-03-10T10:45:16.623Z,4.20
2019-03-10T10:47:01.912Z,4.58
2019-03-10T10:48:44.018Z,4.55
2019-03-10T10:50:26.078Z,4.30
2019-03-10T10:52:25.749Z,3.92
2019-03-10T10:54:17.391Z,3.80
2019-03-10T10:56:01.080Z,3.80
2019-03-10T10:57:47.045Z,3.60
2019-03-10T10:59:37.595Z,3.40
2019-03-10T11:01:29.843Z,3.27
2019-03-10T11:03:12.642Z,2.72
2019-03-10T11:04:56.163Z,2.77
2019-03-10T11:07:05.419Z,3.37
2019-03-10T11:09:06.356Z,3.98
2019-03-10T11:11:03.994Z,4.95
2019-03-10T11:12:56.866Z,4.20
2019-03-10T11:14:51.380Z,5.15
2019-03-10T11:16:48.537Z,4.90
2019-03-10T11:18:51.741Z,3.85
2019-03-10T11:20:41.726Z,4.72
2019-03-10T11:22:24.779Z,4.97
2019-03-10T11:24:22.811Z,4.15
2019-03-10T11:26:16.280Z,4.75
2019-03-10T11:28:06.156Z,4.33
2019-03-10T11:29:46.584Z,4.35
2019-03-10T11:31:29.944Z,3.92
2019-03-10T11:33:24.257Z,4.65
2019-03-10T11:35:07.001Z,4.50
2019-03-10T11:37:00.060Z,3.92
2019-03-10T11:38:41.725Z,3.70
2019-03-10T11:40:34.206Z,3.83
2019-03-10T11:42:36.384Z,4.00
2019-03-10T11:44:29.096Z,4.45
2019-03-10T11:46:25.754Z,5.00
2019-03-10T11:48:19.573Z,4.10
2019-03-10T11:50:01.791Z,4.12
2019-03-10T11:52:04.415Z,4.47
2019-03-10T11:54:01.124Z,5.50
2019-03-10T11:55:52.762Z,5.10
2019-03-10T11:57:32.565Z,5.03
2019-03-10T11:59:20.641Z,5.15
2019-03-10T12:01:02.890Z,5.42
2019-03-10T12:02:42.654Z,5.08
2019-03-10T12:04:35.054Z,4.78
2019-03-10T12:06:18.244Z,4.45
2019-03-10T12:08:10.794Z,3.80
2019-03-10T12:09:45.304Z,3.17
2019-03-10T12:11:19.783Z,3.37
2019-03-10T12:12:54.202Z,3.58
2019-03-10T12:14:28.641Z,3.20
2019-03-10T12:16:03.249Z,3.60
2019-03-10T12:17:37.651Z,3.40
2019-03-10T12:19:12.129Z,3.67
2019-03-10T12:20:46.573Z,3.52
2019-03-10T12:22:21.293Z,3.25
2019-03-10T12:23:56.192Z,3.15
2019-03-10T12:25:30.867Z,3.12
2019-03-10T12:27:05.699Z,2.92
2019-03-10T12:28:41.619Z,3.02
2019-03-10T12:30:16.555Z,2.85
2019-03-10T12:31:51.230Z,2.80
2019-03-10T12:33:26.399Z,3.20
2019-03-10T12:35:00.794Z,2.87
2019-03-10T12:36:35.573Z,2.90
2019-03-10T12:38:10.429Z,2.62
2019-03-10T12:39:45.458Z,2.83
2019-03-10T12:41:19.993Z,2.77
2019-03-10T12:42:54.514Z,2.30
2019-03-10T12:44:30.659Z,2.62
2019-03-10T12:46:05.792Z,2.50
2019-03-10T12:47:40.320Z,3.15
2019-03-10T12:49:14.754Z,3.42
2019-03-10T12:50:49.225Z,3.60
2019-03-10T12:52:23.934Z,3.40
2019-03-10T12:53:58.306Z,3.70
2019-03-10T12:55:32.701Z,3.95
2019-03-10T12:57:07.069Z,4.10
2019-03-10T12:58:41.869Z,4.00
2019-03-10T13:00:16.824Z,3.85
2019-03-10T13:01:51.498Z,4.30
2019-03-10T13:03:25.974Z,4.60
2019-03-10T13:05:00.550Z,4.10
2019-03-10T13:06:35.389Z,3.85
2019-03-10T13:08:10.154Z,3.80
2019-03-10T13:09:44.938Z,4.28
2019-03-10T13:11:19.650Z,4.30
2019-03-10T13:12:54.109Z,4.17
2019-03-10T13:14:30.868Z,3.98
2019-03-10T13:16:05.251Z,4.35
2019-03-10T13:17:39.639Z,4.50
2019-03-10T13:19:14.382Z,4.10
2019-03-10T13:20:49.138Z,4.22
2019-03-10T13:22:23.956Z,4.30
2019-03-10T13:23:58.477Z,3.95
2019-03-10T13:25:33.595Z,4.50
2019-03-10T13:27:08.376Z,4.28
2019-03-10T13:28:43.137Z,4.40
2019-03-10T13:30:17.866Z,4.72
2019-03-10T13:31:52.513Z,4.40
2019-03-10T13:33:27.220Z,5.15
2019-03-10T13:35:02.284Z,4.70
2019-03-10T13:36:37.472Z,4.87
2019-03-10T13:38:13.013Z,4.15
2019-03-10T13:39:47.856Z,3.87
2019-03-10T13:41:22.731Z,3.97
2019-03-10T13:42:57.527Z,3.87
2019-03-10T13:44:32.434Z,3.80
2019-03-10T13:46:07.234Z,3.67
2019-03-10T13:47:42.024Z,3.33
2019-03-10T13:49:16.875Z,3.47
2019-03-10T13:50:51.781Z,3.83
2019-03-10T13:52:26.604Z,3.67
2019-03-10T13:54:01.660Z,3.63
2019-03-10T13:55:36.566Z,3.27
2019-03-10T13:57:11.648Z,3.70
2019-03-10T13:58:46.451Z,4.00
2019-03-10T14:00:22.574Z,3.40
2019-03-10T14:01:58.007Z,3.83
2019-03-10T14:03:33.202Z,3.70
2019-03-10T14:05:09.025Z,3.13
2019-03-10T14:06:43.848Z,3.40
2019-03-10T14:08:19.174Z,3.40
2019-03-10T14:09:53.968Z,3.40
2019-03-10T14:11:29.057Z,3.00
2019-03-10T14:13:03.850Z,2.90
2019-03-10T14:14:38.698Z,3.30
2019-03-10T14:16:13.509Z,3.00
2019-03-10T14:17:48.567Z,3.50
2019-03-10T14:19:24.089Z,3.00
2019-03-10T14:20:59.819Z,2.80
2019-03-10T14:22:34.622Z,2.70
2019-03-10T14:24:09.425Z,2.70
2019-03-10T14:25:44.304Z,2.57
2019-03-10T14:27:18.907Z,3.10
2019-03-10T14:28:53.607Z,3.00
2019-03-10T14:30:28.015Z,3.07
2019-03-10T14:32:02.611Z,2.77
2019-03-10T14:33:37.122Z,2.73
2019-03-10T14:35:11.807Z,2.40
2019-03-10T14:36:46.289Z,2.27
2019-03-10T14:38:21.181Z,2.40
2019-03-10T14:39:55.750Z,2.00
2019-03-10T14:41:30.412Z,2.40
2019-03-10T14:43:05.046Z,2.50
2019-03-10T14:44:39.522Z,1.90
2019-03-10T14:46:14.024Z,2.80
2019-03-10T14:47:48.902Z,2.80
2019-03-10T14:49:23.791Z,2.43
2019-03-10T14:50:58.567Z,1.80
2019-03-10T14:52:33.284Z,1.10
2019-03-10T14:54:07.732Z,0.87
2019-03-10T14:55:42.703Z,1.00
2019-03-10T14:57:17.496Z,1.00
2019-03-10T14:58:52.333Z,0.80
2019-03-10T15:00:27.716Z,1.23
2019-03-10T15:02:02.625Z,0.97
2019-03-10T15:03:37.483Z,1.20
2019-03-10T15:05:12.821Z,1.00
2019-03-10T15:06:47.911Z,1.40
2019-03-10T15:08:22.972Z,1.40
2019-03-10T15:09:57.776Z,1.23
2019-03-10T15:11:32.835Z,1.20
2019-03-10T15:13:07.683Z,1.10
2019-03-10T15:14:42.478Z,1.43
2019-03-10T15:16:16.886Z,1.23
2019-03-10T15:17:51.245Z,1.40
2019-03-10T15:19:25.672Z,1.40
2019-03-10T15:21:00.038Z,1.40
2019-03-10T15:22:35.000Z,1.80
2019-03-10T15:24:09.802Z,1.30
2019-03-10T15:25:44.608Z,1.30
2019-03-10T15:27:23.160Z,1.02
2019-03-10T15:28:56.264Z,1.30
2019-03-10T15:30:31.762Z,1.82
2019-03-10T15:32:07.348Z,1.32
2019-03-10T15:33:42.474Z,1.17
2019-03-10T15:35:17.431Z,1.00
2019-03-10T15:36:52.233Z,1.10
2019-03-10T15:38:27.364Z,1.00
2019-03-10T15:40:02.415Z,1.32
2019-03-10T15:41:37.230Z,1.47
2019-03-10T15:43:12.063Z,1.10
2019-03-10T15:44:46.891Z,1.72
2019-03-10T15:46:22.006Z,1.72
2019-03-10T15:47:57.055Z,1.45
2019-03-10T15:49:31.847Z,1.15
2019-03-10T15:51:07.049Z,1.07
2019-03-10T15:52:41.902Z,1.00
2019-03-10T15:54:16.745Z,1.10
2019-03-10T15:55:51.671Z,1.10
2019-03-10T15:57:26.897Z,1.50
2019-03-10T15:59:02.058Z,1.10
2019-03-10T16:00:37.012Z,1.20
2019-03-10T16:02:12.284Z,1.27
2019-03-10T16:03:47.113Z,1.13
2019-03-10T16:05:22.368Z,1.77
2019-03-10T16:06:57.557Z,2.77
2019-03-10T16:08:32.815Z,6.37
2019-03-10T16:10:08.663Z,3.12
2019-03-10T16:11:44.071Z,2.17
2019-03-10T16:13:19.200Z,1.57
2019-03-10T16:14:54.429Z,1.35
2019-03-10T16:16:29.241Z,2.37
2019-03-10T16:18:04.132Z,2.27
2019-03-10T16:19:39.395Z,1.67
2019-03-10T16:21:14.545Z,1.60
2019-03-10T16:22:49.400Z,1.52
2019-03-10T16:24:24.205Z,1.00
2019-03-10T16:26:00.958Z,1.10
2019-03-10T16:27:36.192Z,1.10
2019-03-10T16:29:11.319Z,1.23
2019-03-10T16:30:46.140Z,1.47
2019-03-10T16:32:20.962Z,1.20
2019-03-10T16:33:56.095Z,1.00
2019-03-10T16:35:31.177Z,1.20
2019-03-10T16:37:06.366Z,1.30
2019-03-10T16:38:41.185Z,1.20
2019-03-10T16:40:16.590Z,2.22
2019-03-10T16:41:51.405Z,1.77
2019-03-10T16:43:26.231Z,1.90
2019-03-10T16:45:01.065Z,1.82
2019-03-10T16:46:35.888Z,1.65
2019-03-10T16:48:10.718Z,2.00
2019-03-10T16:49:45.543Z,1.90
2019-03-10T16:51:20.373Z,2.30
2019-03-10T16:52:55.307Z,1.80
2019-03-10T16:54:30.441Z,1.60
2019-03-10T16:56:05.407Z,1.82
2019-03-10T16:57:40.229Z,1.70
2019-03-10T16:59:15.070Z,2.10
2019-03-10T17:00:49.882Z,2.10
2019-03-10T17:02:24.684Z,1.60
2019-03-10T17:03:59.994Z,1.30
2019-03-10T17:05:35.195Z,1.70
2019-03-10T17:07:12.646Z,1.77
2019-03-10T17:08:47.731Z,1.75
2019-03-10T17:10:22.942Z,1.42
2019-03-10T17:11:57.930Z,1.43
2019-03-10T17:13:32.800Z,2.23
2019-03-10T17:15:09.702Z,1.90
2019-03-10T17:16:44.529Z,1.70
2019-03-10T17:18:19.666Z,1.60
2019-03-10T17:19:54.453Z,1.25
2019-03-10T17:21:29.594Z,1.57
2019-03-10T17:23:04.767Z,1.40
2019-03-10T17:24:39.932Z,0.90
2019-03-10T17:26:14.737Z,1.10
2019-03-10T17:27:49.723Z,1.32
2019-03-10T17:29:24.840Z,1.25
2019-03-10T17:30:59.703Z,1.35
2019-03-10T17:32:37.114Z,1.42
2019-03-10T17:34:11.773Z,1.10
2019-03-10T17:35:47.008Z,1.10
2019-03-10T17:37:22.133Z,1.32
2019-03-10T17:38:57.373Z,1.15
2019-03-10T17:40:32.196Z,1.15
2019-03-10T17:42:07.127Z,1.00
2019-03-10T17:43:42.221Z,1.30
2019-03-10T17:45:18.845Z,1.10
2019-03-10T17:46:53.681Z,1.12
2019-03-10T17:48:28.824Z,1.15
2019-03-10T17:50:04.168Z,1.00
2019-03-10T17:51:38.996Z,1.00
2019-03-10T17:53:14.161Z,1.20
2019-03-10T17:54:49.023Z,1.42
2019-03-10T17:56:24.116Z,1.15
2019-03-10T17:57:58.929Z,1.72
2019-03-10T17:59:33.741Z,1.20
2019-03-10T18:01:08.625Z,1.27
2019-03-10T18:02:43.495Z,1.60
2019-03-10T18:04:18.544Z,1.47
2019-03-10T18:05:53.612Z,2.85
2019-03-10T18:07:28.469Z,1.55
2019-03-10T18:09:03.690Z,1.65
2019-03-10T18:10:38.850Z,1.25
2019-03-10T18:12:13.684Z,1.45
2019-03-10T18:13:48.525Z,1.35
2019-03-10T18:15:23.734Z,1.40
2019-03-10T18:16:58.850Z,1.45
2019-03-10T18:18:33.665Z,1.40
2019-03-10T18:20:12.037Z,1.30
2019-03-10T18:21:46.851Z,1.77
2019-03-10T18:23:21.677Z,1.40
2019-03-10T18:24:56.585Z,1.20
2019-03-10T18:26:31.572Z,1.40
2019-03-10T18:28:06.525Z,1.00
2019-03-10T18:29:41.625Z,1.30
2019-03-10T18:31:16.771Z,1.27
2019-03-10T18:32:51.758Z,0.90
2019-03-10T18:34:27.096Z,1.45
2019-03-10T18:36:02.390Z,0.90
2019-03-10T18:37:38.246Z,0.90
2019-03-10T18:39:13.410Z,0.70
2019-03-10T18:40:48.134Z,0.80
2019-03-10T18:42:22.866Z,0.72
2019-03-10T18:43:57.610Z,0.85
2019-03-10T18:45:32.450Z,1.20
2019-03-10T18:47:07.122Z,0.78
2019-03-10T18:48:41.822Z,0.90
2019-03-10T18:50:17.004Z,0.98
2019-03-10T18:51:51.509Z,0.72
2019-03-10T18:53:27.131Z,0.93
2019-03-10T18:55:01.498Z,0.90
2019-03-10T18:56:35.878Z,0.78
2019-03-10T18:58:10.290Z,0.75
2019-03-10T18:59:44.992Z,0.75
2019-03-10T19:01:19.622Z,0.70
2019-03-10T19:02:54.331Z,0.88
2019-03-10T19:04:28.798Z,0.80
2019-03-10T19:06:03.669Z,0.70
2019-03-10T19:07:38.106Z,0.70
2019-03-10T19:09:12.551Z,1.00
2019-03-10T19:10:47.415Z,1.27
2019-03-10T19:12:21.787Z,0.60
2019-03-10T19:13:56.450Z,0.80
2019-03-10T19:15:30.825Z,0.98
2019-03-10T19:17:05.368Z,0.72
2019-03-10T19:18:40.102Z,0.70
2019-03-10T19:20:15.489Z,0.65
2019-03-10T19:21:50.268Z,0.70
2019-03-10T19:23:25.199Z,1.02
2019-03-10T19:25:00.646Z,0.60
2019-03-10T19:26:35.574Z,0.68
2019-03-10T19:28:10.368Z,0.70
2019-03-10T19:31:40.661Z,0.93
2019-03-10T19:33:15.483Z,0.72
2019-03-10T19:34:50.579Z,0.95
2019-03-10T19:36:25.376Z,0.90
2019-03-10T19:38:00.839Z,0.60
2019-03-10T19:39:35.977Z,0.80
2019-03-10T19:41:11.196Z,0.70
2019-03-10T19:42:46.099Z,1.05
2019-03-10T19:44:21.342Z,0.80
2019-03-10T19:45:56.800Z,0.80
2019-03-10T19:47:31.937Z,0.40
2019-03-10T19:49:07.100Z,0.60
2019-03-10T19:50:42.193Z,0.60
2019-03-10T19:52:17.427Z,0.60
2019-03-10T19:53:52.554Z,0.50
2019-03-10T19:55:28.095Z,0.70
2019-03-10T19:57:03.226Z,0.60
2019-03-10T19:58:38.667Z,0.50
2019-03-10T20:00:15.853Z,0.60
2019-03-10T20:01:50.642Z,0.70
2019-03-10T20:03:25.740Z,0.60
2019-03-10T20:05:01.132Z,0.90
2019-03-10T20:06:36.011Z,0.50
2019-03-10T20:08:11.182Z,0.60
2019-03-10T20:09:46.315Z,0.57
2019-03-10T20:11:21.251Z,0.55
2019-03-10T20:12:56.053Z,0.50
2019-03-10T20:14:30.991Z,0.60
2019-03-10T20:16:05.940Z,0.70
2019-03-10T20:17:41.560Z,0.70
2019-03-10T20:19:16.987Z,0.78
2019-03-10T20:20:51.775Z,0.70
2019-03-10T20:22:26.592Z,0.60
2019-03-10T20:24:01.729Z,0.68
2019-03-10T20:25:36.801Z,0.75
2019-03-10T20:27:11.959Z,0.78
2019-03-10T20:28:46.744Z,0.57
2019-03-10T20:30:21.755Z,0.70
2019-03-10T20:31:56.619Z,0.80
2019-03-10T20:33:31.441Z,0.62
2019-03-10T20:35:25.955Z,0.70
2019-03-10T20:37:00.800Z,0.60
2019-03-10T20:38:35.609Z,0.60
2019-03-10T20:40:13.358Z,0.60
2019-03-10T20:41:48.799Z,0.53
2019-03-10T20:43:23.593Z,0.80
2019-03-10T20:44:58.401Z,0.68
2019-03-10T20:46:33.546Z,0.60
2019-03-10T20:48:08.622Z,0.80
2019-03-10T20:49:43.434Z,1.00
2019-03-10T20:51:18.210Z,0.50
2019-03-10T20:52:53.031Z,0.62
2019-03-10T20:54:28.975Z,0.70
2019-03-10T20:56:04.077Z,0.47
2019-03-10T20:57:39.278Z,0.60
2019-03-10T20:59:14.510Z,0.60
2019-03-10T21:00:49.447Z,0.60
2019-03-10T21:02:24.607Z,0.70
2019-03-10T21:04:00.448Z,0.90
2019-03-10T21:05:35.502Z,0.80
2019-03-10T21:07:11.017Z,0.80
2019-03-10T21:08:46.885Z,0.70
2019-03-10T21:10:22.131Z,0.70
2019-03-10T21:11:57.175Z,0.60
2019-03-10T21:13:31.614Z,0.50
2019-03-10T21:15:09.274Z,0.40
2019-03-10T21:16:44.077Z,0.70
2019-03-10T21:18:19.147Z,0.47
2019-03-10T21:19:54.199Z,0.30
2019-03-10T21:21:29.029Z,0.40
2019-03-10T21:23:03.821Z,0.30
2019-03-10T21:24:38.611Z,0.30
2019-03-10T21:26:13.406Z,0.60
2019-03-10T21:27:48.262Z,0.30
2019-03-10T21:29:23.045Z,0.30
2019-03-10T21:30:57.828Z,0.45
2019-03-10T21:32:32.708Z,0.40
2019-03-10T21:34:07.518Z,0.30
2019-03-10T21:35:42.579Z,0.37
2019-03-10T21:37:17.603Z,0.50
2019-03-10T21:38:52.398Z,0.40
2019-03-10T21:40:27.286Z,0.40
2019-03-10T21:42:02.074Z,0.30
2019-03-10T21:43:37.140Z,0.35
2019-03-10T21:45:12.677Z,0.40
2019-03-10T21:46:49.843Z,0.40
2019-03-10T21:48:24.332Z,0.40
2019-03-10T21:49:59.399Z,0.50
2019-03-10T21:51:34.186Z,0.45
2019-03-10T21:53:09.228Z,0.50
2019-03-10T21:54:44.269Z,0.40